sensor_id;sensor_type;location;lat;lon;timestamp;P1;durP1;ratioP1;P2;durP2;ratioP2
63664;SDS011;49820;33.966;73.390;2023-04-05T02:01:38;2.55;;;1.08;;
63664;SDS011;49820;33.966;73.390;2023-04-05T02:04:07;3.10;;;1.10;;
63664;SDS011;49820;33.966;73.390;2023-04-05T02:06:36;2.20;;;0.80;;
63664;SDS011;49820;33.966;73.390;2023-04-05T02:09:07;2.78;;;1.30;;
63664;SDS011;49820;33.966;73.390;2023-04-05T02:37:32;1.55;;;0.75;;
63664;SDS011;49820;33.966;73.390;2023-04-05T02:40:06;2.95;;;0.95;;
63664;SDS011;49820;33.966;73.390;2023-04-05T02:42:40;2.57;;;1.10;;
63664;SDS011;49820;33.966;73.390;2023-04-05T02:45:09;3.88;;;0.95;;
63664;SDS011;49820;33.966;73.390;2023-04-05T02:47:38;2.28;;;1.10;;
63664;SDS011;49820;33.966;73.390;2023-04-05T02:50:07;2.90;;;1.00;;
63664;SDS011;49820;33.966;73.390;2023-04-05T02:52:42;2.92;;;0.95;;
63664;SDS011;49820;33.966;73.390;2023-04-05T02:55:11;3.33;;;1.27;;
63664;SDS011;49820;33.966;73.390;2023-04-05T02:57:42;1.60;;;1.00;;
63664;SDS011;49820;33.966;73.390;2023-04-05T03:00:32;2.03;;;0.90;;
63664;SDS011;49820;33.966;73.390;2023-04-05T03:03:02;3.50;;;1.00;;
63664;SDS011;49820;33.966;73.390;2023-04-05T03:05:32;2.70;;;0.98;;
63664;SDS011;49820;33.966;73.390;2023-04-05T03:08:02;3.78;;;1.13;;
63664;SDS011;49820;33.966;73.390;2023-04-05T03:10:34;4.07;;;1.10;;
63664;SDS011;49820;33.966;73.390;2023-04-05T03:13:13;2.90;;;0.80;;
63664;SDS011;49820;33.966;73.390;2023-04-05T03:15:43;4.43;;;1.23;;
63664;SDS011;49820;33.966;73.390;2023-04-05T03:18:16;2.75;;;1.00;;
63664;SDS011;49820;33.966;73.390;2023-04-05T03:20:48;1.58;;;0.82;;
63664;SDS011;49820;33.966;73.390;2023-04-05T03:23:20;2.95;;;0.90;;
63664;SDS011;49820;33.966;73.390;2023-04-05T03:25:59;2.15;;;0.90;;
63664;SDS011;49820;33.966;73.390;2023-04-05T03:28:34;3.88;;;1.08;;
63664;SDS011;49820;33.966;73.390;2023-04-05T03:31:05;2.80;;;1.20;;
63664;SDS011;49820;33.966;73.390;2023-04-05T03:33:55;3.65;;;1.40;;
63664;SDS011;49820;33.966;73.390;2023-04-05T03:36:28;3.23;;;1.30;;
63664;SDS011;49820;33.966;73.390;2023-04-05T03:39:22;2.20;;;0.80;;
63664;SDS011;49820;33.966;73.390;2023-04-05T03:41:51;4.10;;;1.20;;
63664;SDS011;49820;33.966;73.390;2023-04-05T03:44:20;4.43;;;1.20;;
63664;SDS011;49820;33.966;73.390;2023-04-05T03:46:49;3.05;;;1.13;;
63664;SDS011;49820;33.966;73.390;2023-04-05T03:49:21;3.05;;;1.20;;
63664;SDS011;49820;33.966;73.390;2023-04-05T03:51:50;3.65;;;1.50;;
63664;SDS011;49820;33.966;73.390;2023-04-05T03:54:19;2.22;;;1.10;;
63664;SDS011;49820;33.966;73.390;2023-04-05T03:56:54;2.03;;;1.00;;
63664;SDS011;49820;33.966;73.390;2023-04-05T03:59:24;5.38;;;1.15;;
63664;SDS011;49820;33.966;73.390;2023-04-05T04:01:53;1.92;;;1.02;;
63664;SDS011;49820;33.966;73.390;2023-04-05T04:04:23;3.70;;;1.02;;
63664;SDS011;49820;33.966;73.390;2023-04-05T04:06:54;3.40;;;1.20;;
63664;SDS011;49820;33.966;73.390;2023-04-05T04:09:26;2.92;;;1.20;;
63664;SDS011;49820;33.966;73.390;2023-04-05T04:12:04;2.17;;;1.17;;
63664;SDS011;49820;33.966;73.390;2023-04-05T04:14:38;2.50;;;1.40;;
63664;SDS011;49820;33.966;73.390;2023-04-05T04:17:30;3.05;;;1.63;;
63664;SDS011;49820;33.966;73.390;2023-04-05T04:20:24;2.28;;;1.20;;
63664;SDS011;49820;33.966;73.390;2023-04-05T04:23:28;3.58;;;1.42;;
63664;SDS011;49820;33.966;73.390;2023-04-05T04:26:19;2.35;;;1.10;;
63664;SDS011;49820;33.966;73.390;2023-04-05T04:29:11;3.80;;;1.38;;
63664;SDS011;49820;33.966;73.390;2023-04-05T04:31:57;3.22;;;1.20;;
63664;SDS011;49820;33.966;73.390;2023-04-05T04:34:48;4.05;;;1.17;;
63664;SDS011;49820;33.966;73.390;2023-04-05T04:37:40;2.65;;;1.30;;
63664;SDS011;49820;33.966;73.390;2023-04-05T04:40:31;3.90;;;1.00;;
63664;SDS011;49820;33.966;73.390;2023-04-05T04:43:33;3.13;;;1.20;;
63664;SDS011;49820;33.966;73.390;2023-04-05T04:46:16;2.37;;;1.20;;
63664;SDS011;49820;33.966;73.390;2023-04-05T04:48:56;3.00;;;1.20;;
63664;SDS011;49820;33.966;73.390;2023-04-05T04:51:32;3.10;;;1.10;;
63664;SDS011;49820;33.966;73.390;2023-04-05T04:54:01;3.58;;;1.20;;
63664;SDS011;49820;33.966;73.390;2023-04-05T04:56:31;2.70;;;1.10;;
63664;SDS011;49820;33.966;73.390;2023-04-05T04:59:00;2.92;;;1.20;;
63664;SDS011;49820;33.966;73.390;2023-04-05T05:01:29;3.28;;;1.38;;
63664;SDS011;49820;33.966;73.390;2023-04-05T05:04:01;2.33;;;1.10;;
63664;SDS011;49820;33.966;73.390;2023-04-05T05:06:35;2.75;;;1.10;;
63664;SDS011;49820;33.966;73.390;2023-04-05T05:09:05;3.38;;;1.23;;
63664;SDS011;49820;33.966;73.390;2023-04-05T05:11:47;3.28;;;1.30;;
63664;SDS011;49820;33.966;73.390;2023-04-05T05:14:16;2.75;;;1.13;;
63664;SDS011;49820;33.966;73.390;2023-04-05T05:16:45;3.00;;;1.23;;
63664;SDS011;49820;33.966;73.390;2023-04-05T05:19:16;2.83;;;1.05;;
63664;SDS011;49820;33.966;73.390;2023-04-05T05:21:49;2.47;;;1.02;;
63664;SDS011;49820;33.966;73.390;2023-04-05T05:24:20;4.45;;;1.20;;
63664;SDS011;49820;33.966;73.390;2023-04-05T05:26:49;1.40;;;1.00;;
63664;SDS011;49820;33.966;73.390;2023-04-05T05:29:18;4.82;;;1.40;;
63664;SDS011;49820;33.966;73.390;2023-04-05T05:31:48;3.85;;;1.25;;
63664;SDS011;49820;33.966;73.390;2023-04-05T05:34:18;2.70;;;1.38;;
63664;SDS011;49820;33.966;73.390;2023-04-05T05:36:50;2.67;;;1.02;;
63664;SDS011;49820;33.966;73.390;2023-04-05T05:39:21;3.10;;;1.20;;
63664;SDS011;49820;33.966;73.390;2023-04-05T05:41:50;1.27;;;0.90;;
63664;SDS011;49820;33.966;73.390;2023-04-05T05:44:19;3.05;;;0.88;;
63664;SDS011;49820;33.966;73.390;2023-04-05T05:46:49;4.20;;;1.15;;
63664;SDS011;49820;33.966;73.390;2023-04-05T05:49:18;1.60;;;0.70;;
63664;SDS011;49820;33.966;73.390;2023-04-05T05:51:47;2.80;;;1.03;;
63664;SDS011;49820;33.966;73.390;2023-04-05T05:54:18;2.38;;;1.10;;
63664;SDS011;49820;33.966;73.390;2023-04-05T05:56:46;3.00;;;0.98;;
63664;SDS011;49820;33.966;73.390;2023-04-05T05:59:16;2.75;;;1.02;;
63664;SDS011;49820;33.966;73.390;2023-04-05T06:01:45;5.70;;;1.08;;
63664;SDS011;49820;33.966;73.390;2023-04-05T06:04:15;1.90;;;0.77;;
63664;SDS011;49820;33.966;73.390;2023-04-05T06:06:46;1.65;;;0.70;;
63664;SDS011;49820;33.966;73.390;2023-04-05T06:09:15;3.45;;;0.95;;
63664;SDS011;49820;33.966;73.390;2023-04-05T06:11:44;3.90;;;1.58;;
63664;SDS011;49820;33.966;73.390;2023-04-05T06:14:23;3.17;;;1.00;;
63664;SDS011;49820;33.966;73.390;2023-04-05T06:16:52;2.67;;;1.00;;
63664;SDS011;49820;33.966;73.390;2023-04-05T06:19:21;1.90;;;1.23;;
63664;SDS011;49820;33.966;73.390;2023-04-05T06:21:51;2.70;;;1.20;;
63664;SDS011;49820;33.966;73.390;2023-04-05T06:24:19;3.85;;;1.13;;
63664;SDS011;49820;33.966;73.390;2023-04-05T06:26:49;3.05;;;1.02;;
63664;SDS011;49820;33.966;73.390;2023-04-05T06:29:18;2.53;;;0.85;;
63664;SDS011;49820;33.966;73.390;2023-04-05T06:31:47;2.10;;;0.95;;
63664;SDS011;49820;33.966;73.390;2023-04-05T06:34:16;1.60;;;1.05;;
63664;SDS011;49820;33.966;73.390;2023-04-05T06:36:46;2.57;;;1.10;;
63664;SDS011;49820;33.966;73.390;2023-04-05T06:39:14;2.30;;;1.25;;
63664;SDS011;49820;33.966;73.390;2023-04-05T06:41:44;3.47;;;1.13;;
63664;SDS011;49820;33.966;73.390;2023-04-05T06:44:13;5.00;;;1.20;;
63664;SDS011;49820;33.966;73.390;2023-04-05T06:46:42;3.67;;;1.17;;
63664;SDS011;49820;33.966;73.390;2023-04-05T06:49:11;3.45;;;1.30;;
63664;SDS011;49820;33.966;73.390;2023-04-05T06:51:40;4.20;;;1.17;;
63664;SDS011;49820;33.966;73.390;2023-04-05T06:54:09;3.83;;;1.20;;
63664;SDS011;49820;33.966;73.390;2023-04-05T06:56:39;4.00;;;1.20;;
63664;SDS011;49820;33.966;73.390;2023-04-05T06:59:07;2.13;;;1.03;;
63664;SDS011;49820;33.966;73.390;2023-04-05T07:01:36;3.37;;;1.20;;
63664;SDS011;49820;33.966;73.390;2023-04-05T07:04:06;4.10;;;1.13;;
63664;SDS011;49820;33.966;73.390;2023-04-05T07:06:35;3.90;;;1.30;;
63664;SDS011;49820;33.966;73.390;2023-04-05T07:09:06;1.95;;;1.17;;
63664;SDS011;49820;33.966;73.390;2023-04-05T07:11:34;4.88;;;1.50;;
63664;SDS011;49820;33.966;73.390;2023-04-05T07:14:04;3.13;;;1.40;;
63664;SDS011;49820;33.966;73.390;2023-04-05T07:16:33;3.45;;;1.60;;
63664;SDS011;49820;33.966;73.390;2023-04-05T07:19:03;2.25;;;1.10;;
63664;SDS011;49820;33.966;73.390;2023-04-05T07:21:32;3.92;;;1.30;;
63664;SDS011;49820;33.966;73.390;2023-04-05T07:24:02;2.83;;;1.40;;
63664;SDS011;49820;33.966;73.390;2023-04-05T07:26:31;2.40;;;1.25;;
63664;SDS011;49820;33.966;73.390;2023-04-05T07:29:05;3.15;;;1.10;;
63664;SDS011;49820;33.966;73.390;2023-04-05T07:31:35;2.55;;;1.20;;
63664;SDS011;49820;33.966;73.390;2023-04-05T07:34:05;3.43;;;1.30;;
63664;SDS011;49820;33.966;73.390;2023-04-05T07:36:35;4.13;;;1.67;;
63664;SDS011;49820;33.966;73.390;2023-04-05T07:39:04;3.80;;;1.30;;
63664;SDS011;49820;33.966;73.390;2023-04-05T07:41:33;5.68;;;1.35;;
63664;SDS011;49820;33.966;73.390;2023-04-05T07:44:08;2.97;;;1.40;;
63664;SDS011;49820;33.966;73.390;2023-04-05T07:46:38;3.22;;;1.60;;
63664;SDS011;49820;33.966;73.390;2023-04-05T07:49:15;2.50;;;1.40;;
63664;SDS011;49820;33.966;73.390;2023-04-05T07:51:44;3.42;;;1.40;;
63664;SDS011;49820;33.966;73.390;2023-04-05T07:54:16;4.10;;;1.40;;
63664;SDS011;49820;33.966;73.390;2023-04-05T07:56:45;4.60;;;1.50;;
63664;SDS011;49820;33.966;73.390;2023-04-05T07:59:14;3.20;;;1.60;;
63664;SDS011;49820;33.966;73.390;2023-04-05T08:01:43;3.22;;;1.35;;
63664;SDS011;49820;33.966;73.390;2023-04-05T08:04:12;2.78;;;1.50;;
63664;SDS011;49820;33.966;73.390;2023-04-05T08:06:41;3.13;;;1.35;;
63664;SDS011;49820;33.966;73.390;2023-04-05T08:09:10;6.05;;;1.70;;
63664;SDS011;49820;33.966;73.390;2023-04-05T08:11:39;3.67;;;1.50;;
63664;SDS011;49820;33.966;73.390;2023-04-05T08:14:08;4.87;;;1.43;;
63664;SDS011;49820;33.966;73.390;2023-04-05T08:16:38;5.55;;;1.70;;
63664;SDS011;49820;33.966;73.390;2023-04-05T08:19:07;4.22;;;1.50;;
63664;SDS011;49820;33.966;73.390;2023-04-05T08:21:36;3.92;;;1.67;;
63664;SDS011;49820;33.966;73.390;2023-04-05T08:24:05;5.45;;;1.85;;
63664;SDS011;49820;33.966;73.390;2023-04-05T08:26:34;2.85;;;1.50;;
63664;SDS011;49820;33.966;73.390;2023-04-05T08:29:03;3.65;;;1.35;;
63664;SDS011;49820;33.966;73.390;2023-04-05T08:31:32;4.43;;;1.27;;
63664;SDS011;49820;33.966;73.390;2023-04-05T08:34:01;2.95;;;1.52;;
63664;SDS011;49820;33.966;73.390;2023-04-05T08:36:33;3.63;;;1.60;;
63664;SDS011;49820;33.966;73.390;2023-04-05T08:39:02;5.65;;;1.75;;
63664;SDS011;49820;33.966;73.390;2023-04-05T08:41:35;3.80;;;1.67;;
63664;SDS011;49820;33.966;73.390;2023-04-05T08:44:08;4.53;;;1.77;;
63664;SDS011;49820;33.966;73.390;2023-04-05T08:46:38;3.30;;;1.50;;
63664;SDS011;49820;33.966;73.390;2023-04-05T08:49:11;5.80;;;1.90;;
63664;SDS011;49820;33.966;73.390;2023-04-05T08:51:40;3.53;;;1.40;;
63664;SDS011;49820;33.966;73.390;2023-04-05T08:54:10;3.45;;;1.35;;
63664;SDS011;49820;33.966;73.390;2023-04-05T08:56:40;2.47;;;1.40;;
63664;SDS011;49820;33.966;73.390;2023-04-05T08:59:10;4.80;;;1.80;;
63664;SDS011;49820;33.966;73.390;2023-04-05T09:01:42;3.63;;;1.40;;
63664;SDS011;49820;33.966;73.390;2023-04-05T09:04:23;3.53;;;1.70;;
63664;SDS011;49820;33.966;73.390;2023-04-05T09:06:57;6.47;;;1.80;;
63664;SDS011;49820;33.966;73.390;2023-04-05T09:09:26;5.30;;;1.70;;
63664;SDS011;49820;33.966;73.390;2023-04-05T09:12:01;6.07;;;1.92;;
63664;SDS011;49820;33.966;73.390;2023-04-05T09:14:35;5.40;;;1.90;;
63664;SDS011;49820;33.966;73.390;2023-04-05T09:17:06;5.03;;;2.00;;
63664;SDS011;49820;33.966;73.390;2023-04-05T09:19:35;4.75;;;1.73;;
63664;SDS011;49820;33.966;73.390;2023-04-05T09:22:07;5.63;;;1.97;;
63664;SDS011;49820;33.966;73.390;2023-04-05T09:24:42;4.75;;;2.08;;
63664;SDS011;49820;33.966;73.390;2023-04-05T09:27:18;6.63;;;1.80;;
63664;SDS011;49820;33.966;73.390;2023-04-05T09:29:53;6.63;;;1.60;;
63664;SDS011;49820;33.966;73.390;2023-04-05T09:32:24;6.25;;;1.75;;
63664;SDS011;49820;33.966;73.390;2023-04-05T09:34:59;5.35;;;1.92;;
63664;SDS011;49820;33.966;73.390;2023-04-05T09:37:33;4.15;;;1.63;;
63664;SDS011;49820;33.966;73.390;2023-04-05T09:40:03;4.57;;;2.20;;
63664;SDS011;49820;33.966;73.390;2023-04-05T09:42:44;5.63;;;2.22;;
63664;SDS011;49820;33.966;73.390;2023-04-05T09:45:14;6.47;;;2.22;;
63664;SDS011;49820;33.966;73.390;2023-04-05T09:47:54;5.03;;;2.40;;
63664;SDS011;49820;33.966;73.390;2023-04-05T09:50:26;4.32;;;2.13;;
63664;SDS011;49820;33.966;73.390;2023-04-05T09:53:04;5.03;;;2.17;;
63664;SDS011;49820;33.966;73.390;2023-04-05T09:55:46;5.82;;;2.10;;
63664;SDS011;49820;33.966;73.390;2023-04-05T09:58:20;6.53;;;2.45;;
63664;SDS011;49820;33.966;73.390;2023-04-05T10:00:52;9.95;;;3.00;;
63664;SDS011;49820;33.966;73.390;2023-04-05T10:03:46;5.80;;;2.53;;
63664;SDS011;49820;33.966;73.390;2023-04-05T10:06:17;5.57;;;2.45;;
63664;SDS011;49820;33.966;73.390;2023-04-05T10:08:46;7.05;;;2.50;;
63664;SDS011;49820;33.966;73.390;2023-04-05T10:11:17;8.85;;;2.63;;
63664;SDS011;49820;33.966;73.390;2023-04-05T10:13:47;4.95;;;2.47;;
63664;SDS011;49820;33.966;73.390;2023-04-05T10:16:19;7.30;;;2.40;;
63664;SDS011;49820;33.966;73.390;2023-04-05T10:18:53;6.97;;;2.63;;
63664;SDS011;49820;33.966;73.390;2023-04-05T10:21:22;6.50;;;2.80;;
63664;SDS011;49820;33.966;73.390;2023-04-05T10:26:44;7.43;;;2.73;;
63664;SDS011;49820;33.966;73.390;2023-04-05T10:29:24;6.83;;;2.90;;
63664;SDS011;49820;33.966;73.390;2023-04-05T10:32:26;7.03;;;2.90;;
63664;SDS011;49820;33.966;73.390;2023-04-05T10:35:26;5.77;;;2.80;;
63664;SDS011;49820;33.966;73.390;2023-04-05T10:40:50;6.13;;;3.13;;
63664;SDS011;49820;33.966;73.390;2023-04-05T10:43:39;7.97;;;3.15;;
63664;SDS011;49820;33.966;73.390;2023-04-05T10:46:09;8.10;;;3.23;;
63664;SDS011;49820;33.966;73.390;2023-04-05T10:51:44;9.13;;;3.58;;
63664;SDS011;49820;33.966;73.390;2023-04-05T10:54:13;6.43;;;3.22;;
63664;SDS011;49820;33.966;73.390;2023-04-05T10:56:45;10.98;;;3.65;;
63664;SDS011;49820;33.966;73.390;2023-04-05T10:59:15;8.38;;;3.30;;
63664;SDS011;49820;33.966;73.390;2023-04-05T11:01:46;7.47;;;3.30;;
63664;SDS011;49820;33.966;73.390;2023-04-05T11:04:16;9.23;;;3.20;;
63664;SDS011;49820;33.966;73.390;2023-04-05T11:06:46;6.70;;;3.05;;
63664;SDS011;49820;33.966;73.390;2023-04-05T11:09:35;10.38;;;3.30;;
63664;SDS011;49820;33.966;73.390;2023-04-05T11:12:05;9.57;;;3.45;;
63664;SDS011;49820;33.966;73.390;2023-04-05T11:14:35;8.80;;;3.10;;
63664;SDS011;49820;33.966;73.390;2023-04-05T11:17:22;8.80;;;3.30;;
63664;SDS011;49820;33.966;73.390;2023-04-05T11:20:05;7.93;;;3.20;;
63664;SDS011;49820;33.966;73.390;2023-04-05T11:22:39;9.80;;;3.65;;
63664;SDS011;49820;33.966;73.390;2023-04-05T11:25:21;10.07;;;3.50;;
63664;SDS011;49820;33.966;73.390;2023-04-05T11:28:01;5.38;;;3.17;;
63664;SDS011;49820;33.966;73.390;2023-04-05T11:30:48;9.48;;;3.30;;
63664;SDS011;49820;33.966;73.390;2023-04-05T11:36:28;7.50;;;2.97;;
63664;SDS011;49820;33.966;73.390;2023-04-05T11:44:51;6.68;;;3.78;;
63664;SDS011;49820;33.966;73.390;2023-04-05T11:47:21;7.57;;;3.20;;
63664;SDS011;49820;33.966;73.390;2023-04-05T11:49:51;8.17;;;3.30;;
63664;SDS011;49820;33.966;73.390;2023-04-05T11:52:20;6.07;;;3.00;;
63664;SDS011;49820;33.966;73.390;2023-04-05T11:54:50;6.93;;;2.83;;
63664;SDS011;49820;33.966;73.390;2023-04-05T11:57:21;6.68;;;2.90;;
63664;SDS011;49820;33.966;73.390;2023-04-05T11:59:51;9.05;;;2.47;;
63664;SDS011;49820;33.966;73.390;2023-04-05T12:02:21;8.70;;;3.33;;
63664;SDS011;49820;33.966;73.390;2023-04-05T12:04:54;6.13;;;3.35;;
63664;SDS011;49820;33.966;73.390;2023-04-05T12:07:26;7.63;;;2.97;;
63664;SDS011;49820;33.966;73.390;2023-04-05T12:10:05;8.10;;;3.33;;
63664;SDS011;49820;33.966;73.390;2023-04-05T12:12:38;7.50;;;3.23;;
63664;SDS011;49820;33.966;73.390;2023-04-05T12:15:08;11.80;;;3.50;;
63664;SDS011;49820;33.966;73.390;2023-04-05T12:17:45;8.73;;;3.55;;
63664;SDS011;49820;33.966;73.390;2023-04-05T12:20:20;7.60;;;3.03;;
63664;SDS011;49820;33.966;73.390;2023-04-05T12:22:55;7.00;;;2.70;;
63664;SDS011;49820;33.966;73.390;2023-04-05T12:25:24;6.97;;;2.57;;
63664;SDS011;49820;33.966;73.390;2023-04-05T12:28:02;6.10;;;3.17;;
63664;SDS011;49820;33.966;73.390;2023-04-05T12:30:36;8.40;;;3.60;;
63664;SDS011;49820;33.966;73.390;2023-04-05T12:33:26;11.48;;;4.85;;
63664;SDS011;49820;33.966;73.390;2023-04-05T12:35:55;10.15;;;4.53;;
63664;SDS011;49820;33.966;73.390;2023-04-05T12:38:25;9.60;;;3.83;;
63664;SDS011;49820;33.966;73.390;2023-04-05T12:41:00;10.00;;;3.80;;
63664;SDS011;49820;33.966;73.390;2023-04-05T12:43:41;11.02;;;3.63;;
63664;SDS011;49820;33.966;73.390;2023-04-05T12:46:14;9.85;;;3.17;;
63664;SDS011;49820;33.966;73.390;2023-04-05T12:48:48;12.13;;;3.47;;
63664;SDS011;49820;33.966;73.390;2023-04-05T12:51:20;9.20;;;3.20;;
63664;SDS011;49820;33.966;73.390;2023-04-05T12:53:55;9.13;;;3.58;;
63664;SDS011;49820;33.966;73.390;2023-04-05T12:56:24;7.88;;;3.33;;
63664;SDS011;49820;33.966;73.390;2023-04-05T12:58:59;7.53;;;3.33;;
63664;SDS011;49820;33.966;73.390;2023-04-05T13:01:29;9.27;;;3.42;;
63664;SDS011;49820;33.966;73.390;2023-04-05T13:03:59;7.17;;;3.30;;
63664;SDS011;49820;33.966;73.390;2023-04-05T13:06:43;10.07;;;4.38;;
63664;SDS011;49820;33.966;73.390;2023-04-05T13:09:16;9.95;;;4.10;;
63664;SDS011;49820;33.966;73.390;2023-04-05T13:11:45;9.40;;;3.25;;
63664;SDS011;49820;33.966;73.390;2023-04-05T13:14:14;15.23;;;6.85;;
63664;SDS011;49820;33.966;73.390;2023-04-05T13:16:44;8.40;;;3.72;;
63664;SDS011;49820;33.966;73.390;2023-04-05T13:19:14;10.38;;;3.70;;
63664;SDS011;49820;33.966;73.390;2023-04-05T13:21:43;13.10;;;4.25;;
63664;SDS011;49820;33.966;73.390;2023-04-05T13:24:12;8.50;;;3.10;;
63664;SDS011;49820;33.966;73.390;2023-04-05T13:26:41;9.82;;;3.95;;
63664;SDS011;49820;33.966;73.390;2023-04-05T13:29:10;10.77;;;3.50;;
63664;SDS011;49820;33.966;73.390;2023-04-05T13:31:39;9.07;;;2.85;;
63664;SDS011;49820;33.966;73.390;2023-04-05T13:34:08;12.75;;;3.88;;
63664;SDS011;49820;33.966;73.390;2023-04-05T13:36:37;10.15;;;3.20;;
63664;SDS011;49820;33.966;73.390;2023-04-05T13:39:06;7.80;;;2.28;;
63664;SDS011;49820;33.966;73.390;2023-04-05T13:41:35;10.57;;;2.80;;
63664;SDS011;49820;33.966;73.390;2023-04-05T13:44:04;9.27;;;2.80;;
63664;SDS011;49820;33.966;73.390;2023-04-05T13:46:32;10.57;;;3.42;;
63664;SDS011;49820;33.966;73.390;2023-04-05T13:49:02;8.82;;;3.00;;
63664;SDS011;49820;33.966;73.390;2023-04-05T13:51:31;6.75;;;2.85;;
63664;SDS011;49820;33.966;73.390;2023-04-05T13:54:01;7.18;;;2.67;;
63664;SDS011;49820;33.966;73.390;2023-04-05T13:56:31;6.90;;;2.60;;
63664;SDS011;49820;33.966;73.390;2023-04-05T13:59:00;6.00;;;2.80;;
63664;SDS011;49820;33.966;73.390;2023-04-05T14:01:29;8.43;;;2.88;;
63664;SDS011;49820;33.966;73.390;2023-04-05T14:03:59;6.72;;;2.30;;
63664;SDS011;49820;33.966;73.390;2023-04-05T14:06:28;9.43;;;2.80;;
63664;SDS011;49820;33.966;73.390;2023-04-05T14:08:58;9.02;;;2.60;;
63664;SDS011;49820;33.966;73.390;2023-04-05T14:11:27;9.85;;;3.47;;
63664;SDS011;49820;33.966;73.390;2023-04-05T14:13:56;10.90;;;4.20;;
63664;SDS011;49820;33.966;73.390;2023-04-05T14:16:24;16.20;;;6.00;;
63664;SDS011;49820;33.966;73.390;2023-04-05T14:18:54;13.65;;;4.32;;
63664;SDS011;49820;33.966;73.390;2023-04-05T14:21:23;11.18;;;3.90;;
63664;SDS011;49820;33.966;73.390;2023-04-05T14:23:53;8.53;;;2.87;;
63664;SDS011;49820;33.966;73.390;2023-04-05T14:26:25;10.15;;;3.78;;
63664;SDS011;49820;33.966;73.390;2023-04-05T14:28:55;8.45;;;3.30;;
63664;SDS011;49820;33.966;73.390;2023-04-05T14:31:23;6.07;;;2.30;;
63664;SDS011;49820;33.966;73.390;2023-04-05T14:33:53;5.72;;;3.08;;
63664;SDS011;49820;33.966;73.390;2023-04-05T14:36:22;8.77;;;3.35;;
63664;SDS011;49820;33.966;73.390;2023-04-05T14:38:51;10.60;;;3.63;;
63664;SDS011;49820;33.966;73.390;2023-04-05T14:41:20;8.82;;;3.55;;
63664;SDS011;49820;33.966;73.390;2023-04-05T14:43:50;11.23;;;5.40;;
63664;SDS011;49820;33.966;73.390;2023-04-05T14:46:19;10.70;;;5.43;;
63664;SDS011;49820;33.966;73.390;2023-04-05T14:48:49;8.65;;;3.10;;
63664;SDS011;49820;33.966;73.390;2023-04-05T14:51:18;8.20;;;3.20;;
63664;SDS011;49820;33.966;73.390;2023-04-05T14:53:48;7.72;;;2.67;;
63664;SDS011;49820;33.966;73.390;2023-04-05T14:56:18;13.07;;;3.10;;
63664;SDS011;49820;33.966;73.390;2023-04-05T14:58:47;8.03;;;4.53;;
63664;SDS011;49820;33.966;73.390;2023-04-05T15:01:16;6.95;;;3.15;;
63664;SDS011;49820;33.966;73.390;2023-04-05T15:03:47;9.00;;;3.40;;
63664;SDS011;49820;33.966;73.390;2023-04-05T15:06:20;9.63;;;4.23;;
63664;SDS011;49820;33.966;73.390;2023-04-05T15:08:49;7.90;;;3.50;;
63664;SDS011;49820;33.966;73.390;2023-04-05T15:11:20;8.98;;;3.53;;
63664;SDS011;49820;33.966;73.390;2023-04-05T15:13:50;9.73;;;4.97;;
63664;SDS011;49820;33.966;73.390;2023-04-05T15:16:20;10.85;;;5.38;;
63664;SDS011;49820;33.966;73.390;2023-04-05T15:18:52;16.48;;;5.90;;
63664;SDS011;49820;33.966;73.390;2023-04-05T15:21:23;13.30;;;6.33;;
63664;SDS011;49820;33.966;73.390;2023-04-05T15:23:53;15.25;;;7.07;;
63664;SDS011;49820;33.966;73.390;2023-04-05T15:26:24;17.55;;;9.80;;
63664;SDS011;49820;33.966;73.390;2023-04-05T15:28:53;12.25;;;7.50;;
63664;SDS011;49820;33.966;73.390;2023-04-05T15:31:23;13.77;;;7.93;;
63664;SDS011;49820;33.966;73.390;2023-04-05T15:33:53;11.95;;;8.55;;
63664;SDS011;49820;33.966;73.390;2023-04-05T15:36:24;12.65;;;8.18;;
63664;SDS011;49820;33.966;73.390;2023-04-05T15:38:55;11.85;;;8.43;;
63664;SDS011;49820;33.966;73.390;2023-04-05T15:41:24;11.70;;;8.00;;
63664;SDS011;49820;33.966;73.390;2023-04-05T15:44:07;14.27;;;8.30;;
63664;SDS011;49820;33.966;73.390;2023-04-05T15:46:38;9.10;;;6.50;;
63664;SDS011;49820;33.966;73.390;2023-04-05T15:49:08;9.77;;;6.27;;
63664;SDS011;49820;33.966;73.390;2023-04-05T15:51:42;11.77;;;6.28;;
63664;SDS011;49820;33.966;73.390;2023-04-05T15:54:13;9.07;;;4.93;;
63664;SDS011;49820;33.966;73.390;2023-04-05T15:56:50;7.63;;;5.00;;
63664;SDS011;49820;33.966;73.390;2023-04-05T15:59:19;8.83;;;4.40;;
63664;SDS011;49820;33.966;73.390;2023-04-05T16:04:55;11.23;;;3.77;;
63664;SDS011;49820;33.966;73.390;2023-04-05T16:07:25;5.90;;;3.45;;
63664;SDS011;49820;33.966;73.390;2023-04-05T16:10:32;10.05;;;7.50;;
63664;SDS011;49820;33.966;73.390;2023-04-05T16:13:03;10.13;;;5.15;;
63664;SDS011;49820;33.966;73.390;2023-04-05T16:15:34;6.28;;;3.30;;
63664;SDS011;49820;33.966;73.390;2023-04-05T16:18:04;7.50;;;5.78;;
63664;SDS011;49820;33.966;73.390;2023-04-05T16:20:34;11.93;;;7.25;;
63664;SDS011;49820;33.966;73.390;2023-04-05T16:23:04;36.40;;;19.85;;
63664;SDS011;49820;33.966;73.390;2023-04-05T16:25:33;25.27;;;12.43;;
63664;SDS011;49820;33.966;73.390;2023-04-05T16:28:02;16.13;;;10.43;;
63664;SDS011;49820;33.966;73.390;2023-04-05T16:30:34;9.82;;;6.75;;
63664;SDS011;49820;33.966;73.390;2023-04-05T16:33:05;9.63;;;5.03;;
63664;SDS011;49820;33.966;73.390;2023-04-05T16:35:34;4.60;;;2.50;;
63664;SDS011;49820;33.966;73.390;2023-04-05T16:38:04;6.78;;;3.28;;
63664;SDS011;49820;33.966;73.390;2023-04-05T16:40:34;6.27;;;2.33;;
63664;SDS011;49820;33.966;73.390;2023-04-05T16:43:03;7.90;;;2.50;;
63664;SDS011;49820;33.966;73.390;2023-04-05T16:45:32;6.30;;;2.73;;
63664;SDS011;49820;33.966;73.390;2023-04-05T16:48:03;8.88;;;4.20;;
63664;SDS011;49820;33.966;73.390;2023-04-05T16:50:32;8.63;;;4.22;;
63664;SDS011;49820;33.966;73.390;2023-04-05T16:53:03;8.35;;;5.03;;
63664;SDS011;49820;33.966;73.390;2023-04-05T16:55:31;8.00;;;5.05;;
63664;SDS011;49820;33.966;73.390;2023-04-05T16:58:02;8.18;;;5.20;;
63664;SDS011;49820;33.966;73.390;2023-04-05T17:00:30;10.30;;;5.60;;
63664;SDS011;49820;33.966;73.390;2023-04-05T17:03:01;8.25;;;5.50;;
63664;SDS011;49820;33.966;73.390;2023-04-05T17:05:30;10.88;;;5.63;;
63664;SDS011;49820;33.966;73.390;2023-04-05T17:08:00;11.75;;;6.55;;
63664;SDS011;49820;33.966;73.390;2023-04-05T17:10:31;12.48;;;6.20;;
63664;SDS011;49820;33.966;73.390;2023-04-05T17:13:00;11.25;;;6.32;;
63664;SDS011;49820;33.966;73.390;2023-04-05T17:15:33;9.98;;;6.50;;
63664;SDS011;49820;33.966;73.390;2023-04-05T17:18:03;12.45;;;7.72;;
63664;SDS011;49820;33.966;73.390;2023-04-05T17:20:33;12.07;;;7.60;;
63664;SDS011;49820;33.966;73.390;2023-04-05T17:23:02;8.15;;;6.20;;
63664;SDS011;49820;33.966;73.390;2023-04-05T17:25:31;8.70;;;4.50;;
63664;SDS011;49820;33.966;73.390;2023-04-05T17:28:00;6.90;;;3.95;;
63664;SDS011;49820;33.966;73.390;2023-04-05T17:30:30;7.80;;;4.15;;
63664;SDS011;49820;33.966;73.390;2023-04-05T17:32:59;6.88;;;3.80;;
63664;SDS011;49820;33.966;73.390;2023-04-05T17:35:30;6.28;;;4.35;;
63664;SDS011;49820;33.966;73.390;2023-04-05T17:37:59;6.30;;;4.47;;
63664;SDS011;49820;33.966;73.390;2023-04-05T17:40:32;7.45;;;4.85;;
63664;SDS011;49820;33.966;73.390;2023-04-05T17:43:01;9.00;;;4.45;;
63664;SDS011;49820;33.966;73.390;2023-04-05T17:45:30;7.68;;;4.85;;
63664;SDS011;49820;33.966;73.390;2023-04-05T17:48:01;9.85;;;5.50;;
63664;SDS011;49820;33.966;73.390;2023-04-05T17:50:32;9.13;;;5.00;;